Estació: Matadepera - Casal de Cultura
Horari: CEST (GMT+2)
Any
Data: 08/11/2019
| Horari | Temperatura | Humitat | Pressió | Vent | Pluja |
| Act. |
Màx. |
Mín. | Act. |
Màx. |
Mín. | Act. |
Màx. |
Mín. | Act. |
Dir. |
Màx. |
| 00:01 - 01:00 | 5,6 | 5,7 | 5,6 | 74 | 77 | 71 | 945,7 | 977,3 | 945,5 | 1 | ENE | 11 | - |
| 01:01 - 02:00 | 6,4 | 7,2 | 5,6 | 74 | 76 | 71 | 945,2 | 945,5 | 945,1 | 1 | NE | 10 | - |
| 02:01 - 03:00 | 7,1 | 7,2 | 6,7 | 77 | 78 | 76 | 945,1 | 945,5 | 945,1 | 1 | SSE | 16 | - |
| 03:01 - 04:00 | 6,3 | 6,7 | 6,1 | 78 | 79 | 77 | 944,7 | 945,1 | 944,5 | 3 | SE | 23 | - |
| 04:01 - 05:00 | 6,0 | 6,7 | 5,6 | 78 | 79 | 77 | 944,3 | 944,5 | 944,1 | 7 | SE | 29 | - |
| 05:01 - 06:00 | 5,0 | 5,6 | 4,4 | 76 | 78 | 71 | 944,3 | 944,5 | 944,1 | 2 | ENE | 24 | - |
| 06:01 - 07:00 | 4,1 | 4,4 | 3,9 | 71 | 73 | 66 | 944,6 | 944,8 | 944,5 | 1 | NNE | 14 | - |
| 07:01 - 08:00 | 4,5 | 5,0 | 3,9 | 73 | 76 | 66 | 945,0 | 945,1 | 944,8 | 1 | ENE | 14 | - |
| 08:01 - 09:00 | 6,2 | 7,2 | 5,0 | 75 | 77 | 72 | 945,5 | 945,8 | 945,1 | 10 | SE | 34 | - |
| 09:01 - 10:00 | 7,6 | 8,9 | 7,2 | 70 | 74 | 67 | 946,3 | 946,8 | 945,8 | 8 | ESE | 34 | - |
| 10:01 - 11:00 | 9,0 | 10,0 | 8,3 | 66 | 70 | 61 | 946,9 | 947,2 | 946,8 | 8 | ESE | 26 | - |
| 11:01 - 12:00 | 9,9 | 10,6 | 9,4 | 64 | 68 | 60 | 947,2 | 947,2 | 946,8 | 5 | SE | 23 | - |
| 12:01 - 13:00 | 10,8 | 11,1 | 10,6 | 60 | 64 | 58 | 946,6 | 946,8 | 946,5 | 8 | SE | 31 | - |
| 13:01 - 14:00 | 11,2 | 12,2 | 10,6 | 58 | 63 | 55 | 946,6 | 946,8 | 946,2 | 10 | SE | 40 | - |
| 14:01 - 15:00 | 11,9 | 12,2 | 11,7 | 56 | 58 | 54 | 946,1 | 946,2 | 945,8 | 12 | SE | 40 | - |
| 15:01 - 16:00 | 11,5 | 11,7 | 11,1 | 58 | 60 | 57 | 946,5 | 946,8 | 946,2 | 7 | SSE | 32 | - |
| 16:01 - 17:00 | 10,5 | 11,1 | 10,0 | 60 | 64 | 58 | 946,6 | 946,8 | 946,5 | 9 | SSE | 40 | - |
| 17:01 - 18:00 | 9,3 | 10,0 | 8,9 | 68 | 72 | 64 | 946,5 | 946,8 | 946,2 | 8 | S | 37 | - |
| 18:01 - 19:00 | 8,1 | 8,9 | 7,8 | 77 | 79 | 72 | 947,1 | 947,2 | 946,8 | 9 | SE | 39 | - |
| 19:01 - 20:00 | 7,3 | 7,8 | 6,7 | 78 | 79 | 77 | 947,4 | 947,9 | 947,2 | 10 | SE | 35 | - |
| 20:01 - 21:00 | 6,7 | 6,7 | 6,7 | 76 | 77 | 76 | 948,0 | 948,2 | 947,9 | 7 | SE | 37 | - |
| 21:01 - 22:00 | 6,3 | 6,7 | 6,1 | 76 | 77 | 74 | 948,6 | 948,9 | 948,2 | 14 | SE | 42 | - |
| 22:01 - 23:00 | 6,1 | 6,1 | 6,1 | 75 | 76 | 74 | 949,1 | 949,5 | 948,9 | 14 | ESE | 39 | - |
| 23:01 - 00:00 | 6,1 | 6,1 | 5,6 | 77 | 77 | 76 | 949,5 | 949,5 | 949,2 | 13 | SE | 34 | - |
| | 7,6 | 12,2 | 3,9 | 71 | 79 | 54 | 946,4 | 977,3 | 944,1 | 7 | ESE | 42 | 0,0 |